Time;durP1;ratioP1;P1;durP2;ratioP2;P2;SDS_P1;SDS_P2;PMS_P1;PMS_P2;Temp;Humidity;BMP_temperature;BMP_pressure;BME280_temperature;BME280_humidity;BME280_pressure;Samples;Min_cycle;Max_cycle;Signal;HPM_P1;HPM_P2
2023/12/27 00:02:22;;;;;;;7.20;4.05;;;;;;;4.23;100.00;101387.38;6003928;23;20576;-70
2023/12/27 00:04:48;;;;;;;7.68;7.00;;;;;;;4.20;100.00;101390.00;5993459;23;20484;-71
2023/12/27 00:07:17;;;;;;;3.80;3.60;;;;;;;4.19;100.00;101396.09;6004015;23;20038;-71
2023/12/27 00:09:43;;;;;;;7.28;4.03;;;;;;;4.20;100.00;101397.81;6022967;23;20085;-71
2023/12/27 00:12:10;;;;;;;3.70;3.50;;;;;;;4.04;100.00;101376.38;6023754;23;20023;-70
2023/12/27 00:14:36;;;;;;;3.70;3.50;;;;;;;4.12;100.00;101405.69;5999345;23;20020;-70
2023/12/27 00:17:05;;;;;;;3.58;3.47;;;;;;;4.09;100.00;101404.88;6028180;23;20039;-70
2023/12/27 00:19:32;;;;;;;6.05;4.13;;;;;;;4.04;100.00;101406.69;5998290;23;20021;-71
2023/12/27 00:21:59;;;;;;;4.10;3.58;;;;;;;3.97;100.00;101422.38;6027261;23;20035;-71
2023/12/27 00:24:25;;;;;;;12.30;5.70;;;;;;;3.94;100.00;101413.75;6025425;23;20566;-71
2023/12/27 00:26:52;;;;;;;6.00;5.15;;;;;;;3.74;100.00;101399.28;6021498;23;20453;-72
2023/12/27 00:29:18;;;;;;;4.35;4.07;;;;;;;3.32;100.00;101330.59;5982929;23;20232;-70
2023/12/27 00:31:45;;;;;;;4.20;4.00;;;;;;;3.76;100.00;101418.28;6023768;23;20007;-71
2023/12/27 00:34:11;;;;;;;12.88;5.03;;;;;;;3.25;100.00;101336.72;6024906;23;20021;-70
2023/12/27 00:36:40;;;;;;;4.07;3.78;;;;;;;3.72;100.00;101427.00;5985829;23;20042;-71
2023/12/27 00:39:10;;;;;;;3.83;3.63;;;;;;;3.47;100.00;101405.69;6024650;23;20034;-71
2023/12/27 00:41:36;;;;;;;4.47;4.20;;;;;;;3.67;100.00;101448.69;6018806;23;20015;-70
2023/12/27 00:44:03;;;;;;;4.38;4.03;;;;;;;3.21;100.00;101361.88;6021745;23;20027;-72
2023/12/27 00:46:29;;;;;;;15.35;4.72;;;;;;;3.66;100.00;101436.59;6010664;23;20027;-71
2023/12/27 00:48:56;;;;;;;9.20;6.20;;;;;;;3.58;100.00;101432.34;6016623;23;20645;-70
2023/12/27 00:51:22;;;;;;;5.43;4.47;;;;;;;3.48;100.00;101429.88;6024826;23;20192;-71
2023/12/27 00:53:49;;;;;;;4.13;3.80;;;;;;;3.27;100.00;101405.00;6024018;23;20038;-70
2023/12/27 00:56:16;;;;;;;4.18;3.97;;;;;;;3.05;100.00;101375.84;6019201;23;20343;-71
2023/12/27 00:58:42;;;;;;;5.20;5.00;;;;;;;3.34;100.00;101428.28;6003922;23;20375;-71
2023/12/27 01:01:11;;;;;;;4.38;3.97;;;;;;;3.45;100.00;101438.56;5995699;23;20040;-70
2023/12/27 01:03:37;;;;;;;7.60;3.83;;;;;;;3.44;100.00;101451.53;6025213;23;20089;-70
2023/12/27 01:06:07;;;;;;;6.82;4.47;;;;;;;3.39;100.00;101456.78;6000301;23;20269;-72
2023/12/27 01:08:34;;;;;;;4.05;3.85;;;;;;;3.35;100.00;101449.91;6022638;23;20090;-70
2023/12/27 01:11:00;;;;;;;3.50;3.30;;;;;;;2.87;100.00;101387.28;5992555;23;20073;-70
2023/12/27 01:13:28;;;;;;;5.03;4.43;;;;;;;3.33;100.00;101467.25;6025610;23;20023;-71
2023/12/27 01:15:55;;;;;;;5.10;4.75;;;;;;;3.15;100.00;101447.53;5999016;23;20027;-72
2023/12/27 01:18:22;;;;;;;3.15;3.05;;;;;;;3.17;100.00;101444.03;5998064;23;20043;-69
2023/12/27 01:20:48;;;;;;;5.55;5.03;;;;;;;3.45;100.00;101480.09;5993807;23;20063;-71
2023/12/27 01:23:15;;;;;;;3.47;3.33;;;;;;;3.47;100.00;101480.94;6025608;23;20597;-70
2023/12/27 01:25:41;;;;;;;10.02;3.75;;;;;;;3.43;100.00;101474.06;6026664;23;20030;-70
2023/12/27 01:28:08;;;;;;;4.05;3.85;;;;;;;3.10;100.00;101424.19;6000260;23;20039;-71
2023/12/27 01:30:34;;;;;;;3.90;3.70;;;;;;;3.25;100.00;101461.22;6030546;23;20089;-69
2023/12/27 01:33:01;;;;;;;3.63;3.33;;;;;;;3.45;100.00;101477.50;5999963;23;20035;-69
2023/12/27 01:35:28;;;;;;;3.50;3.30;;;;;;;3.12;100.00;101424.19;6030019;23;20051;-70
2023/12/27 01:37:54;;;;;;;4.68;4.47;;;;;;;3.35;100.00;101473.28;6001833;23;20216;-70
2023/12/27 01:40:21;;;;;;;6.13;3.72;;;;;;;2.72;100.00;101381.34;6029447;23;20408;-70
2023/12/27 01:42:48;;;;;;;6.88;5.00;;;;;;;2.99;100.00;101429.50;5997078;23;20094;-70
2023/12/27 01:45:14;;;;;;;4.30;3.88;;;;;;;2.88;100.00;101415.75;6031666;23;20097;-70
2023/12/27 01:47:42;;;;;;;3.28;3.17;;;;;;;3.01;100.00;101447.66;6025240;23;20023;-71
2023/12/27 01:50:09;;;;;;;3.60;3.45;;;;;;;2.74;100.00;101423.66;6023069;23;20026;-71
2023/12/27 01:52:38;;;;;;;7.35;3.92;;;;;;;3.00;100.00;101508.13;6027796;23;20042;-70
2023/12/27 01:55:07;;;;;;;3.90;3.60;;;;;;;2.78;100.00;101450.41;5996375;23;20551;-71
2023/12/27 01:57:33;;;;;;;3.25;3.15;;;;;;;2.90;100.00;101475.38;6028516;23;20027;-72
2023/12/27 02:00:00;;;;;;;5.00;4.57;;;;;;;2.86;100.00;101474.53;6024304;23;20493;-71
2023/12/27 02:02:27;;;;;;;4.28;3.80;;;;;;;2.28;100.00;101403.25;6029959;23;20092;-71
2023/12/27 02:04:53;;;;;;;5.88;5.43;;;;;;;2.80;100.00;101497.91;6023553;23;20011;-71
2023/12/27 02:07:20;;;;;;;3.67;3.47;;;;;;;2.31;100.00;101421.38;6027868;23;20026;-70
2023/12/27 02:10:00;;;;;;;3.88;3.58;;;;;;;2.52;100.00;101435.91;6043406;23;20642;-70
2023/12/27 02:12:29;;;;;;;7.85;4.13;;;;;;;2.90;100.00;101491.78;6056516;23;20330;-72
2023/12/27 02:14:56;;;;;;;4.47;4.20;;;;;;;2.64;100.00;101441.88;6035361;23;20121;-70
2023/12/27 02:17:25;;;;;;;9.63;4.95;;;;;;;2.92;100.00;101500.41;6059176;23;20083;-71
2023/12/27 02:19:53;;;;;;;5.30;4.82;;;;;;;2.69;100.00;101486.78;6055045;23;20018;-72
2023/12/27 02:22:22;;;;;;;3.40;3.20;;;;;;;2.70;100.00;101471.19;6054804;23;20030;-70
2023/12/27 02:24:51;;;;;;;4.88;4.57;;;;;;;2.45;100.00;101420.44;6050876;23;20060;-69
2023/12/27 02:27:17;;;;;;;3.17;2.97;;;;;;;2.49;100.00;101432.50;6053502;23;20030;-71
2023/12/27 02:29:44;;;;;;;3.20;3.10;;;;;;;2.40;100.00;101417.88;6025666;23;20093;-70
2023/12/27 02:32:10;;;;;;;3.40;3.20;;;;;;;2.51;100.00;101436.78;6059276;23;20053;-70
2023/12/27 02:34:36;;;;;;;8.05;3.20;;;;;;;2.90;100.00;101496.97;6053063;23;20045;-71
2023/12/27 02:37:03;;;;;;;2.90;2.80;;;;;;;2.98;100.00;101504.69;6045939;23;20111;-72
2023/12/27 02:39:30;;;;;;;3.50;3.30;;;;;;;2.96;100.00;101498.66;6034928;23;20282;-70
2023/12/27 02:41:56;;;;;;;3.55;3.38;;;;;;;2.97;100.00;101500.41;6053536;23;20038;-70
2023/12/27 02:44:26;;;;;;;4.90;4.40;;;;;;;2.90;100.00;101494.38;6036096;23;20052;-72
2023/12/27 02:46:53;;;;;;;8.63;6.90;;;;;;;2.86;100.00;101479.72;6051198;23;20334;-72
2023/12/27 02:49:20;;;;;;;3.97;3.30;;;;;;;2.83;100.00;101476.28;6053149;23;20208;-70
2023/12/27 02:51:47;;;;;;;3.92;3.60;;;;;;;2.25;100.00;101387.75;6051947;23;20280;-70
2023/12/27 02:54:14;;;;;;;2.95;2.85;;;;;;;2.75;100.00;101487.59;6026011;23;20029;-69
2023/12/27 02:56:43;;;;;;;4.07;3.90;;;;;;;2.70;100.00;101481.56;6061966;23;20085;-71
2023/12/27 02:59:09;;;;;;;3.33;3.13;;;;;;;2.68;100.00;101490.22;6054264;23;20827;-71
2023/12/27 03:01:36;;;;;;;3.55;3.38;;;;;;;2.33;100.00;101436.94;6037900;23;20043;-70
2023/12/27 03:04:02;;;;;;;5.30;3.95;;;;;;;2.56;100.00;101486.84;6053261;23;20120;-73
2023/12/27 03:06:29;;;;;;;4.43;3.65;;;;;;;2.06;100.00;101425.84;6053719;23;20054;-70
2023/12/27 03:08:55;;;;;;;5.28;4.97;;;;;;;2.28;100.00;101457.66;6022792;23;20739;-71
2023/12/27 03:11:22;;;;;;;3.67;3.30;;;;;;;2.18;100.00;101450.81;6049036;23;20536;-70
2023/12/27 03:13:48;;;;;;;3.92;3.42;;;;;;;2.18;100.00;101443.03;6041983;23;20327;-68
2023/12/27 03:16:17;;;;;;;4.75;4.35;;;;;;;2.14;100.00;101430.97;6054533;23;20531;-70
2023/12/27 03:18:44;;;;;;;4.55;4.32;;;;;;;2.49;100.00;101484.31;6052663;23;20159;-70
2023/12/27 03:21:10;;;;;;;3.20;3.10;;;;;;;2.26;100.00;101427.47;6038934;23;20026;-72
2023/12/27 03:23:37;;;;;;;3.63;3.42;;;;;;;2.63;100.00;101482.50;6049093;23;20508;-73
2023/12/27 03:26:03;;;;;;;3.42;3.22;;;;;;;2.63;100.00;101479.91;6045615;23;20034;-71
2023/12/27 03:28:30;;;;;;;3.72;3.42;;;;;;;2.59;100.00;101492.00;6043081;23;20041;-72
2023/12/27 03:30:56;;;;;;;4.60;4.30;;;;;;;2.51;100.00;101477.41;6015835;23;20289;-70
2023/12/27 03:33:23;;;;;;;3.78;3.47;;;;;;;2.47;100.00;101460.16;6054167;23;20076;-70
2023/12/27 03:35:50;;;;;;;4.07;3.88;;;;;;;2.55;100.00;101472.19;6029580;23;20277;-72
2023/12/27 03:38:16;;;;;;;3.20;3.10;;;;;;;2.62;100.00;101467.81;6040788;23;20110;-70
2023/12/27 03:40:43;;;;;;;7.93;4.90;;;;;;;2.37;100.00;101416.16;6039249;23;20367;-71
2023/12/27 03:43:09;;;;;;;3.05;2.95;;;;;;;2.83;100.00;101489.25;6044119;23;20722;-71
2023/12/27 03:45:36;;;;;;;3.88;3.67;;;;;;;2.76;100.00;101478.06;6027216;23;20101;-70
2023/12/27 03:48:03;;;;;;;7.03;3.60;;;;;;;2.93;100.00;101475.38;6046133;23;20327;-71
2023/12/27 03:50:30;;;;;;;3.40;3.20;;;;;;;2.91;100.00;101466.75;5999793;23;20465;-70
2023/12/27 03:52:56;;;;;;;3.70;3.58;;;;;;;3.01;100.00;101489.13;6035681;23;20418;-71
2023/12/27 03:55:26;;;;;;;3.30;3.10;;;;;;;3.03;100.00;101487.38;6047935;23;20147;-71
2023/12/27 03:57:52;;;;;;;3.33;3.22;;;;;;;2.74;100.00;101449.56;6038047;23;20019;-72
2023/12/27 04:00:20;;;;;;;3.28;3.17;;;;;;;3.03;100.00;101481.31;6032554;23;20241;-72
2023/12/27 04:02:46;;;;;;;5.45;5.05;;;;;;;2.75;100.00;101442.69;5994454;23;20376;-71
2023/12/27 04:05:13;;;;;;;3.60;3.30;;;;;;;2.72;100.00;101421.94;6047954;23;20523;-70
2023/12/27 04:07:40;;;;;;;4.45;4.15;;;;;;;2.83;100.00;101443.47;6029389;23;20037;-70
2023/12/27 04:10:07;;;;;;;5.50;4.30;;;;;;;3.02;100.00;101457.13;6053446;23;20324;-71
2023/12/27 04:12:33;;;;;;;4.75;4.45;;;;;;;2.99;100.00;101439.03;6035278;23;20022;-71
2023/12/27 04:15:00;;;;;;;3.53;3.33;;;;;;;3.36;100.00;101481.00;6030726;23;20026;-70
2023/12/27 04:17:26;;;;;;;5.68;3.28;;;;;;;3.39;100.00;101490.53;6050871;23;20014;-70
2023/12/27 04:19:54;;;;;;;3.80;3.60;;;;;;;3.25;100.00;101463.81;6014420;23;20166;-69
2023/12/27 04:22:20;;;;;;;3.80;3.50;;;;;;;3.48;100.00;101485.22;6031682;23;20026;-70
2023/12/27 04:24:47;;;;;;;5.45;5.15;;;;;;;3.55;100.00;101481.69;6044361;23;20363;-70
2023/12/27 04:27:13;;;;;;;4.38;3.83;;;;;;;3.05;100.00;101392.28;6051827;23;20389;-73
2023/12/27 04:29:40;;;;;;;3.53;3.33;;;;;;;3.20;100.00;101435.34;6055802;23;20022;-71
2023/12/27 04:32:07;;;;;;;4.30;3.92;;;;;;;3.61;100.00;101483.38;6041251;23;20469;-70
2023/12/27 04:34:33;;;;;;;4.30;3.92;;;;;;;3.29;100.00;101416.25;6011152;23;20022;-70
2023/12/27 04:37:00;;;;;;;3.97;3.78;;;;;;;3.28;100.00;101398.97;6009974;23;20015;-71
2023/12/27 04:39:26;;;;;;;5.10;4.80;;;;;;;3.49;100.00;101429.00;6032977;23;20446;-71
2023/12/27 04:41:53;;;;;;;3.78;3.58;;;;;;;3.82;100.00;101466.69;6052454;23;20027;-70
2023/12/27 04:44:19;;;;;;;3.80;3.60;;;;;;;3.88;100.00;101460.56;6055133;23;20026;-72
2023/12/27 04:46:46;;;;;;;5.57;5.28;;;;;;;3.95;100.00;101462.22;6035624;23;20082;-71
2023/12/27 04:49:12;;;;;;;4.85;4.45;;;;;;;3.96;100.00;101461.34;6047620;23;20014;-70
2023/12/27 04:51:39;;;;;;;3.78;3.58;;;;;;;4.02;100.00;101447.41;6032603;23;20267;-70
2023/12/27 04:54:06;;;;;;;4.90;3.60;;;;;;;4.04;100.00;101437.88;6046893;23;20164;-70
2023/12/27 04:56:32;;;;;;;3.53;3.33;;;;;;;2.91;100.00;101233.44;6040119;23;20269;-70
2023/12/27 04:58:59;;;;;;;3.83;3.63;;;;;;;3.94;100.00;101398.16;6051607;23;20465;-71
2023/12/27 05:01:25;;;;;;;3.60;3.40;;;;;;;4.13;100.00;101432.53;6048522;23;20093;-70
2023/12/27 05:03:51;;;;;;;3.80;3.60;;;;;;;3.73;100.00;101355.19;6057735;23;20237;-71
2023/12/27 05:06:18;;;;;;;5.60;3.70;;;;;;;4.03;100.00;101387.66;6055715;23;20014;-71
2023/12/27 05:08:45;;;;;;;4.68;4.45;;;;;;;4.32;100.00;101435.75;6057450;23;20025;-69
2023/12/27 05:11:13;;;;;;;4.10;3.63;;;;;;;4.36;100.00;101433.06;6059635;23;20293;-71
2023/12/27 05:13:40;;;;;;;3.92;3.63;;;;;;;4.46;100.00;101431.19;6051658;23;20080;-72
2023/12/27 05:16:10;;;;;;;3.80;3.63;;;;;;;4.49;100.00;101435.47;6061405;23;20476;-71
2023/12/27 05:18:38;;;;;;;4.30;3.90;;;;;;;4.49;100.00;101422.47;6049485;23;20015;-72
2023/12/27 05:21:06;;;;;;;3.40;3.30;;;;;;;4.50;100.00;101413.81;6040196;23;20450;-71
2023/12/27 05:23:33;;;;;;;3.28;2.92;;;;;;;4.58;100.00;101409.34;6029792;23;20027;-70
2023/12/27 05:26:00;;;;;;;3.65;3.45;;;;;;;4.33;100.00;101349.97;6030702;23;20351;-70
2023/12/27 05:28:27;;;;;;;3.67;3.38;;;;;;;4.71;100.00;101407.41;6058299;23;20556;-70
2023/12/27 05:30:54;;;;;;;5.22;4.93;;;;;;;4.45;100.00;101361.03;6005457;23;20238;-71
2023/12/27 05:33:20;;;;;;;3.28;3.17;;;;;;;4.45;100.00;101327.25;6035899;23;20347;-70
2023/12/27 05:35:47;;;;;;;3.60;3.40;;;;;;;4.85;100.00;101381.16;6038584;23;20031;-70
2023/12/27 05:38:14;;;;;;;3.65;3.47;;;;;;;4.63;100.00;101333.88;6033962;23;20059;-69
2023/12/27 05:40:40;;;;;;;5.18;4.57;;;;;;;4.82;100.00;101350.03;6057762;23;20014;-72
2023/12/27 05:43:07;;;;;;;3.58;3.40;;;;;;;4.54;100.00;101293.31;6052628;23;20049;-72
2023/12/27 05:45:33;;;;;;;3.80;3.60;;;;;;;4.89;100.00;101331.69;6063438;23;20025;-72
2023/12/27 05:48:00;;;;;;;3.65;3.42;;;;;;;4.85;100.00;101322.25;6051649;23;20019;-72
2023/12/27 05:50:27;;;;;;;4.18;3.78;;;;;;;4.65;100.00;101285.31;6048512;23;20151;-71
2023/12/27 05:52:54;;;;;;;5.82;5.50;;;;;;;4.90;100.00;101316.94;6049990;23;20287;-71
2023/12/27 05:55:20;;;;;;;3.92;3.72;;;;;;;4.54;100.00;101243.94;6039915;23;20026;-71
2023/12/27 05:57:47;;;;;;;3.72;3.53;;;;;;;4.89;100.00;101302.22;6063724;23;20111;-71
2023/12/27 06:00:16;;;;;;;4.97;3.50;;;;;;;4.57;100.00;101247.34;6059893;23;20378;-72
2023/12/27 06:02:43;;;;;;;4.82;4.57;;;;;;;4.98;100.00;101309.84;6033671;23;20031;-72
2023/12/27 06:05:10;;;;;;;3.88;3.67;;;;;;;5.02;100.00;101295.03;6032441;23;20264;-71
2023/12/27 06:07:36;;;;;;;7.65;3.45;;;;;;;4.85;100.00;101279.75;6055374;23;20536;-70
2023/12/27 06:10:03;;;;;;;3.35;3.25;;;;;;;5.06;100.00;101294.94;6031445;23;20015;-73
2023/12/27 06:12:29;;;;;;;3.50;3.40;;;;;;;5.11;100.00;101292.25;6027619;23;20025;-72
2023/12/27 06:14:56;;;;;;;6.07;4.40;;;;;;;4.09;100.00;101113.97;6019917;23;20230;-72
2023/12/27 06:17:23;;;;;;;3.42;3.22;;;;;;;5.14;100.00;101287.84;6033830;23;20037;-72
2023/12/27 06:19:50;;;;;;;3.70;3.40;;;;;;;5.19;100.00;101277.34;6058706;23;20421;-73
2023/12/27 06:22:19;;;;;;;3.30;3.20;;;;;;;4.86;100.00;101216.47;6044161;23;20033;-72
2023/12/27 06:24:45;;;;;;;5.10;4.75;;;;;;;4.86;100.00;101198.25;6035254;23;20034;-70
2023/12/27 06:27:13;;;;;;;3.95;3.75;;;;;;;5.06;100.00;101232.50;6051635;23;20102;-71
2023/12/27 06:29:41;;;;;;;3.33;3.20;;;;;;;5.03;100.00;101218.72;6057158;23;20143;-70
2023/12/27 06:32:10;;;;;;;4.03;3.83;;;;;;;5.23;100.00;101247.75;6035118;23;20363;-70
2023/12/27 06:34:36;;;;;;;3.58;3.38;;;;;;;5.30;100.00;101258.91;6030326;23;20023;-70
2023/12/27 06:37:03;;;;;;;4.55;4.15;;;;;;;4.90;100.00;101179.09;6006888;23;20043;-71
2023/12/27 06:39:30;;;;;;;4.15;3.78;;;;;;;5.37;100.00;101240.53;6047859;23;20450;-70
2023/12/27 06:41:56;;;;;;;3.35;3.15;;;;;;;5.35;100.00;101228.41;5995708;23;20026;-71
2023/12/27 06:44:23;;;;;;;6.00;3.60;;;;;;;5.32;100.00;101216.34;6051852;23;20018;-71
2023/12/27 06:46:49;;;;;;;4.93;4.72;;;;;;;5.18;100.00;101214.03;6026271;23;20180;-71
2023/12/27 06:49:18;;;;;;;4.15;3.95;;;;;;;5.17;100.00;101186.31;6023727;23;20030;-73
2023/12/27 06:51:45;;;;;;;4.30;4.10;;;;;;;5.23;100.00;101187.06;6050149;23;20330;-70
2023/12/27 06:54:11;;;;;;;5.70;5.38;;;;;;;5.32;100.00;101194.69;6056004;23;20495;-69
2023/12/27 06:56:39;;;;;;;3.80;3.40;;;;;;;4.41;100.00;101040.63;6053176;23;20089;-69
2023/12/27 06:59:06;;;;;;;3.58;3.38;;;;;;;5.42;100.00;101211.78;6052649;23;20093;-70
2023/12/27 07:01:32;;;;;;;4.28;4.07;;;;;;;4.87;100.00;101129.75;6039821;23;20033;-71
2023/12/27 07:03:59;;;;;;;3.42;3.33;;;;;;;5.17;100.00;101170.72;6030120;23;20046;-70
2023/12/27 07:06:25;;;;;;;3.92;3.72;;;;;;;5.49;100.00;101205.56;6035425;23;20030;-72
2023/12/27 07:08:52;;;;;;;4.82;4.63;;;;;;;5.56;100.00;101212.31;6046041;23;20022;-69
2023/12/27 07:11:19;;;;;;;3.53;3.42;;;;;;;5.47;100.00;101198.66;6054401;23;20021;-72
2023/12/27 07:13:46;;;;;;;3.22;3.13;;;;;;;5.51;100.00;101195.09;6058352;23;20036;-71
2023/12/27 07:16:14;;;;;;;3.40;3.28;;;;;;;5.43;100.00;101171.84;6055209;23;20097;-70
2023/12/27 07:18:41;;;;;;;5.35;4.95;;;;;;;5.31;100.00;101143.50;6001745;23;20087;-70
2023/12/27 07:21:08;;;;;;;4.07;3.78;;;;;;;5.72;100.00;101196.34;6034630;23;20087;-70
2023/12/27 07:23:34;;;;;;;4.38;3.80;;;;;;;5.74;100.00;101202.38;6055870;23;20026;-73
2023/12/27 07:26:01;;;;;;;4.47;4.18;;;;;;;5.76;100.00;101201.44;6052462;23;20145;-70
2023/12/27 07:28:28;;;;;;;3.85;3.58;;;;;;;5.62;100.00;101176.63;6051993;23;20050;-71
2023/12/27 07:30:54;;;;;;;5.57;5.25;;;;;;;5.53;100.00;101172.50;6035835;23;20043;-70
2023/12/27 07:33:21;;;;;;;3.92;3.72;;;;;;;5.29;100.00;101153.97;6043006;23;20022;-71
2023/12/27 07:35:48;;;;;;;3.92;3.72;;;;;;;5.75;100.00;101236.22;6040793;23;20396;-72
2023/12/27 07:38:14;;;;;;;5.15;4.13;;;;;;;5.63;100.00;101220.00;6052631;23;20042;-70
2023/12/27 07:40:43;;;;;;;4.78;4.47;;;;;;;5.63;100.00;101223.44;6030048;23;20096;-70
2023/12/27 07:43:09;;;;;;;4.75;4.35;;;;;;;5.45;100.00;101187.44;6061917;23;20096;-71
2023/12/27 07:45:36;;;;;;;4.88;4.45;;;;;;;5.78;100.00;101227.47;6020134;23;20035;-72
2023/12/27 07:48:03;;;;;;;10.02;3.75;;;;;;;5.95;100.00;101264.41;6028867;23;20076;-72
2023/12/27 07:50:30;;;;;;;3.38;3.17;;;;;;;5.68;100.00;101210.34;6019831;23;20035;-72
2023/12/27 07:52:57;;;;;;;6.25;4.22;;;;;;;5.95;100.00;101251.41;6004599;23;20446;-72
2023/12/27 07:55:27;;;;;;;5.13;4.45;;;;;;;6.07;100.00;101268.44;6011969;23;20282;-73
2023/12/27 07:57:53;;;;;;;3.72;3.53;;;;;;;5.65;100.00;101192.16;6033362;23;20036;-75
2023/12/27 08:00:21;;;;;;;3.92;3.70;;;;;;;6.14;100.00;101270.03;6043698;23;20032;-72
2023/12/27 08:02:48;;;;;;;5.72;5.22;;;;;;;6.03;100.00;101250.34;6052536;23;20030;-72
2023/12/27 08:05:17;;;;;;;5.80;5.28;;;;;;;6.04;100.00;101249.47;6022166;23;20065;-72
2023/12/27 08:07:43;;;;;;;4.07;3.88;;;;;;;6.25;100.00;101281.94;6064353;23;20030;-73
2023/12/27 08:10:10;;;;;;;3.67;3.47;;;;;;;6.11;100.00;101248.38;6057616;23;20040;-72
2023/12/27 08:12:36;;;;;;;3.80;3.60;;;;;;;5.00;100.00;101058.38;6057044;23;20021;-73
2023/12/27 08:15:06;;;;;;;3.08;2.97;;;;;;;6.21;100.00;101244.66;6035289;23;20049;-71
2023/12/27 08:17:33;;;;;;;3.95;3.42;;;;;;;6.20;100.00;101242.97;6043252;23;20054;-73
2023/12/27 08:20:03;;;;;;;3.10;3.00;;;;;;;5.86;100.00;101173.44;6044744;23;20081;-72
2023/12/27 08:22:31;;;;;;;3.92;3.55;;;;;;;6.04;100.00;101186.94;6055088;23;20244;-71
2023/12/27 08:24:57;;;;;;;3.80;3.60;;;;;;;6.35;100.00;101244.31;6037868;23;20173;-72
2023/12/27 08:27:24;;;;;;;3.42;3.22;;;;;;;3.99;100.00;100890.84;6035333;23;20090;-72
2023/12/27 08:29:50;;;;;;;3.58;3.47;;;;;;;5.94;100.00;101163.66;6014045;23;20491;-74
2023/12/27 08:32:16;;;;;;;4.05;3.75;;;;;;;6.14;100.00;101196.22;6058203;23;20019;-72
2023/12/27 08:34:43;;;;;;;4.78;4.47;;;;;;;6.16;100.00;101192.66;6015671;23;20030;-72
2023/12/27 08:37:10;;;;;;;3.80;3.60;;;;;;;6.47;100.00;101243.97;6038612;23;20022;-72
2023/12/27 08:39:37;;;;;;;6.90;4.15;;;;;;;6.06;100.00;101182.53;6032262;23;20023;-74
2023/12/27 08:42:04;;;;;;;3.83;3.58;;;;;;;6.59;100.00;101261.06;6036900;23;20019;-72
2023/12/27 08:44:30;;;;;;;4.03;3.72;;;;;;;6.40;100.00;101219.00;6058972;23;20149;-72
2023/12/27 08:46:57;;;;;;;4.55;4.25;;;;;;;6.31;100.00;101187.94;6059356;23;20080;-72
2023/12/27 08:49:25;;;;;;;3.65;3.45;;;;;;;6.36;100.00;101173.03;6057407;23;20079;-72
2023/12/27 08:51:54;;;;;;;3.83;3.63;;;;;;;6.86;100.00;101211.66;6044137;23;20030;-72
2023/12/27 08:54:20;;;;;;;4.03;3.83;;;;;;;6.97;100.00;101204.38;6044367;23;20292;-72
2023/12/27 08:56:47;;;;;;;4.50;4.30;;;;;;;7.03;100.00;101211.16;6046224;23;20034;-71
2023/12/27 08:59:13;;;;;;;3.78;3.58;;;;;;;6.68;100.00;101119.13;6052592;23;20459;-72
2023/12/27 09:01:40;;;;;;;3.67;3.42;;;;;;;6.67;100.00;101107.81;6045443;23;20637;-72
2023/12/27 09:04:06;;;;;;;6.80;3.45;;;;;;;7.08;100.00;101171.00;6060846;23;20121;-73
2023/12/27 09:06:33;;;;;;;3.78;3.47;;;;;;;7.11;100.00;101170.03;6031967;23;20023;-72
2023/12/27 09:08:59;;;;;;;3.38;3.17;;;;;;;7.04;100.00;101145.88;6050154;23;20094;-72
2023/12/27 09:11:26;;;;;;;6.75;4.78;;;;;;;6.97;100.00;101137.38;6059326;23;20065;-72
2023/12/27 09:14:08;;;;;;;3.70;3.50;;;;;;;6.94;100.00;101098.34;6041722;23;20015;-72
2023/12/27 09:16:34;;;;;;;4.03;3.70;;;;;;;7.29;100.00;101132.06;6044822;23;20027;-72
2023/12/27 09:19:02;;;;;;;3.65;3.45;;;;;;;7.34;100.00;101127.56;6050816;23;20034;-72
2023/12/27 09:21:31;;;;;;;3.95;3.75;;;;;;;7.36;100.00;101129.22;6053420;23;20265;-72
2023/12/27 09:23:58;;;;;;;3.58;3.38;;;;;;;7.17;100.00;101109.81;6053347;23;20023;-73
2023/12/27 09:26:24;;;;;;;3.85;3.65;;;;;;;7.18;100.00;101077.59;6035083;23;20014;-72
2023/12/27 09:28:51;;;;;;;7.75;4.75;;;;;;;6.96;100.00;101043.50;6051012;23;20243;-72
2023/12/27 09:31:17;;;;;;;3.70;3.50;;;;;;;7.50;100.00;101126.16;6036900;23;20055;-73
2023/12/27 09:33:45;;;;;;;4.22;3.92;;;;;;;6.64;100.00;100961.06;6047831;23;20038;-74
2023/12/27 09:36:12;;;;;;;6.78;4.10;;;;;;;7.52;100.00;101105.22;6051140;23;20463;-73
2023/12/27 09:38:39;;;;;;;4.05;3.80;;;;;;;7.44;100.00;101089.81;6024994;23;20458;-71
2023/12/27 09:41:07;;;;;;;6.22;5.18;;;;;;;6.97;100.00;101008.66;6054398;23;20006;-72
2023/12/27 09:43:36;;;;;;;4.65;4.35;;;;;;;7.45;100.00;101088.88;6045820;23;20335;-73
2023/12/27 09:46:04;;;;;;;4.15;3.85;;;;;;;7.26;100.00;101046.88;6051043;23;20030;-72
2023/12/27 09:48:32;;;;;;;7.63;3.72;;;;;;;7.64;100.00;101090.88;6059983;23;20034;-71
2023/12/27 09:50:59;;;;;;;4.40;4.07;;;;;;;7.38;100.00;101030.81;6063222;23;20029;-72
2023/12/27 09:53:26;;;;;;;4.30;4.10;;;;;;;7.63;100.00;101081.34;6066050;23;20029;-74
2023/12/27 09:55:54;;;;;;;4.30;4.00;;;;;;;7.07;100.00;100990.97;6047440;23;20030;-72
2023/12/27 09:58:21;;;;;;;4.88;4.57;;;;;;;7.24;100.00;101026.97;6025353;23;20383;-72
2023/12/27 10:00:48;;;;;;;5.00;4.60;;;;;;;7.69;100.00;101087.22;6061373;23;20387;-71
2023/12/27 10:03:31;;;;;;;4.93;4.60;;;;;;;7.33;100.00;101016.19;6057191;23;20019;-72
2023/12/27 10:06:05;;;;;;;;;;;;;;;7.67;100.00;101078.56;6056408;23;20119;-72
2023/12/27 10:08:33;;;;;;;4.22;3.92;;;;;;;7.66;100.00;101091.69;6049296;23;20001;-74
2023/12/27 10:11:00;;;;;;;3.75;3.55;;;;;;;7.27;100.00;101008.56;6047563;23;20210;-73
2023/12/27 10:13:26;;;;;;;4.20;4.00;;;;;;;7.23;100.00;100991.31;6055555;23;20040;-73
2023/12/27 10:15:53;;;;;;;4.65;3.75;;;;;;;7.65;100.00;101063.88;6058209;23;20334;-73
2023/12/27 10:18:19;;;;;;;4.63;4.22;;;;;;;7.82;100.00;101085.06;6044962;23;20090;-73
2023/12/27 10:20:48;;;;;;;6.07;5.72;;;;;;;7.84;100.00;101078.00;6043024;23;20023;-72
2023/12/27 10:23:14;;;;;;;3.90;3.70;;;;;;;7.46;100.00;100999.22;6059045;23;20096;-72
2023/12/27 10:25:42;;;;;;;3.92;3.65;;;;;;;7.83;100.00;101039.72;6037817;23;20194;-72
2023/12/27 10:28:09;;;;;;;4.45;4.22;;;;;;;7.98;100.00;101027.88;6057349;23;20029;-73
2023/12/27 10:30:35;;;;;;;4.82;4.30;;;;;;;7.67;100.00;100960.19;6009269;23;21604;-71
2023/12/27 10:33:03;;;;;;;3.75;3.55;;;;;;;7.82;100.00;100949.19;6034561;23;20052;-74
2023/12/27 10:35:31;;;;;;;4.82;4.32;;;;;;;8.02;100.00;100965.88;6047892;23;20030;-74
2023/12/27 10:38:04;;;;;;;5.25;3.78;;;;;;;8.16;100.00;100974.91;6066176;23;20564;-72
2023/12/27 10:40:33;;;;;;;3.90;3.70;;;;;;;7.89;100.00;100926.28;6036509;23;20030;-73
2023/12/27 10:42:59;;;;;;;4.03;3.72;;;;;;;8.30;100.00;100970.91;6058606;23;20332;-72
2023/12/27 10:45:26;;;;;;;4.05;3.78;;;;;;;8.34;100.00;100955.06;6038622;23;20026;-73
2023/12/27 10:48:01;;;;;;;4.93;4.25;;;;;;;8.35;100.00;100935.81;6043468;23;20027;-73
2023/12/27 10:50:30;;;;;;;4.18;3.97;;;;;;;8.41;100.00;100928.66;6055925;23;20014;-73
2023/12/27 10:53:06;;;;;;;4.60;4.35;;;;;;;8.47;100.00;100931.91;6019079;23;20550;-74
2023/12/27 10:55:37;;;;;;;6.05;4.47;;;;;;;8.32;100.00;100891.50;6025714;23;20025;-73
2023/12/27 10:58:15;;;;;;;4.30;4.05;;;;;;;8.29;100.00;100860.25;6051448;23;20082;-72
2023/12/27 11:00:42;;;;;;;4.88;4.65;;;;;;;8.63;100.00;100908.59;6042392;23;20191;-75
2023/12/27 11:03:11;;;;;;;4.80;4.50;;;;;;;8.67;100.00;100891.03;6003642;23;20031;-72
2023/12/27 11:05:40;;;;;;;4.15;3.95;;;;;;;8.68;100.00;100877.88;6040381;23;20356;-73
2023/12/27 11:08:10;;;;;;;3.85;3.65;;;;;;;8.30;100.00;100795.72;6054364;23;20579;-73
2023/12/27 11:10:39;;;;;;;4.70;4.40;;;;;;;8.41;100.00;100816.22;6030477;23;20023;-72
2023/12/27 11:13:10;;;;;;;3.90;3.70;;;;;;;8.78;100.00;100850.41;6030670;23;20046;-70
2023/12/27 11:15:44;;;;;;;4.45;4.10;;;;;;;8.41;100.00;100774.38;6045461;23;20372;-71
2023/12/27 11:18:11;;;;;;;5.40;3.80;;;;;;;8.85;100.00;100840.53;6062429;23;20026;-71
2023/12/27 11:20:40;;;;;;;3.97;3.78;;;;;;;8.58;100.00;100782.41;6043879;23;20388;-72
2023/12/27 11:23:08;;;;;;;3.90;3.70;;;;;;;8.65;100.00;100770.75;6028618;23;20032;-72
2023/12/27 11:25:35;;;;;;;4.65;4.35;;;;;;;8.79;100.00;100778.84;6028571;23;20029;-71